• Join FlightAware (Why Join?)
  • Login
  • US Flag 
07:39PM EDT


 

Airport Tracker/Info


-or-


 

Live Flight TrackerFlight Track Log ✈ CTL14 ✈ 05-Jun-2013 ✈ KBAK - KBMI

Flight Track Log - Related Links

Times and Time Zones

All times are in EDT time to prevent confusion due to time zone crossing. See the CTL14 flight status page for this flight to view local times or setup timezone preferences in your user account.

Time Position Orientation Groundspeed Altitude Reporting Facility
EDT Latitude Longitude Course Direction KTS MPH feet Rate Location/Type
09:13PM 39.2833 -85.9000 360° North 128 147 1,300  Level Indianapolis TRACON
09:13PM 39.3000 -85.9000 360° North 122 140 1,700 900 Climbing Indianapolis TRACON
09:15PM 39.3311 -85.9150 340° North 123 142 2,700 780 Climbing Indianapolis Center
09:16PM 39.3703 -85.9217 353° North 131 151 3,500 600 Climbing Indianapolis Center
09:17PM 39.3919 -85.9675 301° West 144 166 4,000 240 Climbing Indianapolis Center
09:18PM 39.4089 -86.0217 292° West 156 180 4,000  Level Indianapolis Center
09:19PM 39.4300 -86.0783 296° West 169 194 4,000  Level Indianapolis Center
09:20PM 39.4528 -86.1347 298° West 175 201 4,000  Level Indianapolis Center
09:21PM 39.4794 -86.2031 297° West 177 204 4,000  Level Indianapolis Center
09:22PM 39.5000 -86.2586 296° West 174 200 4,000  Level Indianapolis Center
09:23PM 39.5219 -86.3156 297° West 175 201 4,100  Climbing Indianapolis Center
09:24PM 39.5389 -86.3756 290° West 176 203 4,000 -60 Descending Indianapolis Center
09:25PM 39.5581 -86.4350 293° West 178 205 4,000  Level Indianapolis Center
09:26PM 39.5808 -86.4928 297° West 179 206 4,000  Level Indianapolis Center
09:27PM 39.6036 -86.5492 298° West 178 205 4,000  Level Indianapolis Center
09:28PM 39.6236 -86.6075 294° West 177 204 4,000  Level Indianapolis Center
09:29PM 39.6456 -86.6647 296° West 177 204 4,000  Level Indianapolis Center
09:30PM 39.6725 -86.7319 298° West 176 203 4,000 -60 Level Indianapolis Center
09:31PM 39.6939 -86.7886 296° West 175 201 3,900  Descending Indianapolis Center
09:32PM 39.7169 -86.8458 298° West 177 204 4,000 60 Climbing Indianapolis Center
09:33PM 39.7369 -86.9042 294° West 177 204 4,100  Climbing Indianapolis Center
09:34PM 39.7617 -86.9583 301° West 176 203 4,000 -60 Descending Indianapolis Center
09:35PM 39.7867 -87.0133 301° West 177 204 4,000  Level Indianapolis Center
09:36PM 39.8078 -87.0714 295° West 178 205 4,000  Level Indianapolis Center
09:37PM 39.8294 -87.1283 296° West 177 204 4,000  Level Indianapolis Center
09:38PM 39.8564 -87.1972 297° West 177 204 4,000  Level Indianapolis Center
09:39PM 39.8775 -87.2556 295° West 178 205 4,000  Level Indianapolis Center
09:40PM 39.8986 -87.3133 295° West 178 205 4,000  Level Indianapolis Center
09:41PM 39.9203 -87.3714 296° West 178 205 4,000  Level Indianapolis Center
09:42PM 39.9394 -87.4297 293° West 177 204 4,000  Level Indianapolis Center
09:43PM 39.9592 -87.4889 294° West 178 205 4,000  Level Indianapolis Center
09:44PM 39.9794 -87.5467 295° West 177 204 4,000  Level Indianapolis Center
09:45PM 39.9994 -87.6061 294° West 178 205 4,000  Level Indianapolis Center
09:46PM 40.0231 -87.6733 295° West 178 205 4,000  Level Indianapolis Center
09:48PM 40.0511 -87.7431 298° West 209 241 4,000  Level Chicago Center
09:49PM 40.0786 -87.8122 297° West 180 207 4,000  Level Chicago Center
09:50PM 40.0994 -87.8717 295° West 182 209 4,000  Level Chicago Center
09:51PM 40.1219 -87.9303 297° West 181 208 4,000  Level Chicago Center
09:52PM 40.1431 -87.9900 295° West 181 208 4,000  Level Chicago Center
09:53PM 40.1658 -88.0475 297° West 180 207 4,000  Level Chicago Center
09:54PM 40.1919 -88.1044 301° West 180 207 4,000  Level Chicago Center
09:55PM 40.2142 -88.1747 293° West 177 204 4,000 -60 Level Chicago Center
09:56PM 40.2361 -88.2322 297° West 177 204 3,900  Descending Chicago Center
09:57PM 40.2572 -88.2944 294° West 182 209 4,000  Climbing Chicago Center
09:58PM 40.2775 -88.3536 294° West 180 207 4,000  Level Chicago Center
09:59PM 40.2997 -88.4122 296° West 180 207 4,000  Level Chicago Center
10:00PM 40.3208 -88.4717 295° West 181 208 4,000  Level Chicago Center
10:01PM 40.3428 -88.5328 295° West 181 208 4,000 -60 Level Chicago Center
10:02PM 40.3639 -88.5922 295° West 181 208 3,900 -360 Descending Chicago Center
10:03PM 40.3897 -88.6672 294° West 187 215 3,300 -540 Descending Chicago Center
10:04PM 40.4147 -88.7314 297° West 195 224 2,800 -540 Descending Chicago Center
10:05PM 40.4372 -88.7933 296° West 192 221 2,200 -540 Descending Chicago Center
10:06PM 40.4592 -88.8514 296° West 186 214 1,700 -540 Descending Chicago Center
10:07PM 40.4733 -88.8986 292° West 158 182 1,200 -540 Descending Chicago Center
10:09PM 40.4667 -88.9000 303° West  Level FlightAware Approximate
10:16PM 40.4771 -88.9159 303° West  Level Estimated
10:17PM 40.4771 -88.9159 303° West  Level Estimated
10:18PM 40.4771 -88.9159 303° West  Level Estimated